Time;durP1;ratioP1;P1;durP2;ratioP2;P2;SDS_P1;SDS_P2;PMS_P1;PMS_P2;Temp;Humidity;BMP_temperature;BMP_pressure;BME280_temperature;BME280_humidity;BME280_pressure;Samples;Min_cycle;Max_cycle;Signal;HPM_P1;HPM_P2
2022/02/23 00:01:54;;;;;;;;;;;;;;;20.22;40.55;102247.84;7282031;19;153308;-50
2022/02/23 00:04:21;;;;;;;;;;;;;;;20.23;40.40;102249.56;7279247;19;151886;-49
2022/02/23 00:06:48;;;;;;;;;;;;;;;20.23;40.60;102250.41;7282111;19;152913;-50
2022/02/23 00:09:21;;;;;;;;;;;;;;;20.25;40.61;102245.38;7281471;19;154816;-49
2022/02/23 00:11:48;;;;;;;;;;;;;;;20.26;40.74;102254.63;7278098;19;151775;-49
2022/02/23 00:14:15;;;;;;;;;;;;;;;20.26;40.51;102247.03;7286393;19;152796;-50
2022/02/23 00:16:42;;;;;;;;;;;;;;;20.28;40.95;102258.84;7282054;19;151931;-50
2022/02/23 00:19:09;;;;;;;;;;;;;;;20.26;41.00;102246.22;7281627;19;154909;-49
2022/02/23 00:21:36;;;;;;;;;;;;;;;20.27;41.16;102247.88;7280516;19;153344;-50
2022/02/23 00:24:03;;;;;;;;;;;;;;;20.27;40.70;102247.88;7279074;19;151729;-49
2022/02/23 00:26:34;;;;;;;;;;;;;;;20.28;40.77;102258.00;7283459;19;155080;-49
2022/02/23 00:29:02;;;;;;;;;;;;;;;20.28;40.67;102258.84;7281653;19;153871;-49
2022/02/23 00:31:29;;;;;;;;;;;;;;;20.26;40.61;102249.84;7281989;19;152075;-49
2022/02/23 00:33:56;;;;;;;;;;;;;;;20.26;40.90;102249.84;7282981;19;155141;-49
2022/02/23 00:36:23;;;;;;;;;;;;;;;20.26;40.86;102263.06;7287019;19;151974;-49
2022/02/23 00:38:50;;;;;;;;;;;;;;;20.24;41.21;102270.88;7281171;19;154578;-51
2022/02/23 00:41:17;;;;;;;;;;;;;;;20.24;41.10;102271.75;7279577;19;152427;-50
2022/02/23 00:43:44;;;;;;;;;;;;;;;20.25;41.09;102264.16;7280612;19;151980;-49
2022/02/23 00:46:11;;;;;;;;;;;;;;;20.22;40.84;102261.88;7282587;19;154605;-50
2022/02/23 00:48:38;;;;;;;;;;;;;;;20.22;41.19;102256.28;7279077;19;154526;-50
2022/02/23 00:51:05;;;;;;;;;;;;;;;20.21;40.92;102249.00;7280567;19;151617;-50
2022/02/23 00:53:32;;;;;;;;;;;;;;;20.20;40.87;102247.31;7282421;19;152653;-50
2022/02/23 00:55:59;;;;;;;;;;;;;;;20.17;41.02;102245.88;7287588;19;155708;-50
2022/02/23 00:58:26;;;;;;;;;;;;;;;20.15;41.00;102245.31;7279616;19;155193;-50
2022/02/23 01:00:53;;;;;;;;;;;;;;;20.13;41.44;102243.88;7282020;19;156125;-50
2022/02/23 01:03:20;;;;;;;;;;;;;;;20.09;41.12;102249.22;7286723;19;151780;-50
2022/02/23 01:05:47;;;;;;;;;;;;;;;20.09;41.55;102246.41;7285379;19;152738;-49
2022/02/23 01:08:14;;;;;;;;;;;;;;;20.09;41.57;102251.16;7286073;19;154462;-49
2022/02/23 01:10:41;;;;;;;;;;;;;;;20.06;41.29;102246.13;7287788;19;151713;-49
2022/02/23 01:13:08;;;;;;;;;;;;;;;20.03;41.82;102241.06;7286950;19;152719;-50
2022/02/23 01:15:35;;;;;;;;;;;;;;;20.00;41.91;102245.25;7286221;19;152330;-48
2022/02/23 01:18:02;;;;;;;;;;;;;;;19.98;41.70;102236.28;7294571;19;151727;-50
2022/02/23 01:20:29;;;;;;;;;;;;;;;19.97;41.63;102229.81;7286653;19;153562;-49
2022/02/23 01:22:59;;;;;;;;;;;;;;;19.97;41.70;102231.78;7286862;19;151878;-49
2022/02/23 01:25:26;;;;;;;;;;;;;;;19.94;41.78;102237.94;7285111;19;153811;-49
2022/02/23 01:27:56;;;;;;;;;;;;;;;19.92;42.08;102229.78;7287012;19;153218;-49
2022/02/23 01:30:23;;;;;;;;;;;;;;;19.90;41.86;102222.75;7288371;19;151720;-49
2022/02/23 01:32:50;;;;;;;;;;;;;;;19.87;42.08;102218.53;7287286;19;154256;-49
2022/02/23 01:35:17;;;;;;;;;;;;;;;19.86;42.13;102225.25;7286270;19;153990;-49
2022/02/23 01:37:44;;;;;;;;;;;;;;;19.84;42.33;102219.09;7288120;19;151728;-49
2022/02/23 01:40:12;;;;;;;;;;;;;;;19.83;42.56;102234.22;7290662;19;153846;-51
2022/02/23 01:42:39;;;;;;;;;;;;;;;19.85;42.44;102231.16;7285758;19;152050;-50
2022/02/23 01:45:06;;;;;;;;;;;;;;;19.80;42.67;102223.56;7285633;19;151983;-50
2022/02/23 01:47:33;;;;;;;;;;;;;;;19.80;42.64;102231.13;7286789;19;155779;-49
2022/02/23 01:50:06;;;;;;;;;;;;;;;19.78;42.56;102237.00;7283987;19;151733;-50
2022/02/23 01:52:33;;;;;;;;;;;;;;;19.76;42.74;102235.59;7285505;19;152335;-49
2022/02/23 01:55:00;;;;;;;;;;;;;;;19.76;42.48;102236.41;7284114;19;154142;-50
2022/02/23 01:57:27;;;;;;;;;;;;;;;19.73;42.65;102228.56;7284075;19;151595;-49
2022/02/23 01:59:54;;;;;;;;;;;;;;;19.69;42.85;102230.22;7284580;19;154980;-49
2022/02/23 02:02:21;;;;;;;;;;;;;;;19.68;42.80;102228.53;7294026;19;155276;-50
2022/02/23 02:04:49;;;;;;;;;;;;;;;19.66;42.85;102233.59;7284745;19;154981;-49
2022/02/23 02:07:16;;;;;;;;;;;;;;;19.61;42.91;102233.53;7285532;19;154533;-49
2022/02/23 02:09:43;;;;;;;;;;;;;;;19.59;43.01;102232.97;7287314;19;151575;-49
2022/02/23 02:12:11;;;;;;;;;;;;;;;19.58;42.70;102236.06;7281948;19;153429;-50
2022/02/23 02:14:38;;;;;;;;;;;;;;;19.54;42.74;102235.72;7282330;19;153121;-49
2022/02/23 02:17:05;;;;;;;;;;;;;;;19.51;43.13;102236.28;7285937;19;152061;-49
2022/02/23 02:19:32;;;;;;;;;;;;;;;19.50;42.77;102234.59;7284201;19;152471;-50
2022/02/23 02:22:01;;;;;;;;;;;;;;;19.47;42.99;102240.75;7283158;19;153366;-50
2022/02/23 02:24:29;;;;;;;;;;;;;;;19.47;43.30;102244.38;7293825;19;151985;-49
2022/02/23 02:26:57;;;;;;;;;;;;;;;19.46;42.86;102239.03;7284859;19;153323;-50
2022/02/23 02:29:24;;;;;;;;;;;;;;;19.41;43.35;102233.38;7286918;19;151910;-49
2022/02/23 02:31:51;;;;;;;;;;;;;;;19.41;43.29;102227.75;7286514;19;152606;-49
2022/02/23 02:34:19;;;;;;;;;;;;;;;19.36;43.09;102236.97;7284646;19;153836;-49
2022/02/23 02:36:48;;;;;;;;;;;;;;;19.35;43.23;102232.47;7283976;19;151838;-49
2022/02/23 02:39:19;;;;;;;;;;;;;;;19.32;43.08;102227.41;7285594;19;153637;-49
2022/02/23 02:41:46;;;;;;;;;;;;;;;19.31;43.19;102233.28;7285163;19;154030;-49
2022/02/23 02:44:13;;;;;;;;;;;;;;;19.28;43.18;102229.06;7292898;19;151724;-49
2022/02/23 02:46:41;;;;;;;;;;;;;;;19.26;43.63;102234.09;7282198;19;153929;-49
2022/02/23 02:49:08;;;;;;;;;;;;;;;19.26;43.31;102224.88;7284131;19;151793;-49
2022/02/23 02:51:36;;;;;;;;;;;;;;;19.23;43.12;102230.97;7285696;19;151722;-50
2022/02/23 02:54:04;;;;;;;;;;;;;;;19.23;43.21;102216.97;7285114;19;153459;-50
2022/02/23 02:56:32;;;;;;;;;;;;;;;19.20;43.23;102220.31;7285380;19;152965;-50
2022/02/23 02:58:59;;;;;;;;;;;;;;;19.19;43.40;102227.03;7282935;19;155092;-50
2022/02/23 03:01:27;;;;;;;;;;;;;;;19.16;43.22;102225.63;7282757;19;153451;-49
2022/02/23 03:03:54;;;;;;;;;;;;;;;19.13;43.33;102223.34;7283809;19;152054;-49
2022/02/23 03:06:20;;;;;;;;;;;;;;;19.14;43.65;102218.59;7289808;19;152014;-50
2022/02/23 03:08:49;;;;;;;;;;;;;;;19.10;43.64;102219.13;7284835;19;151989;-51
2022/02/23 03:11:16;;;;;;;;;;;;;;;19.09;43.33;102230.59;7284288;19;155035;-49
2022/02/23 03:13:43;;;;;;;;;;;;;;;19.07;43.57;102222.47;7283324;19;153515;-49
2022/02/23 03:16:11;;;;;;;;;;;;;;;19.06;43.62;102228.34;7285058;19;151751;-49
2022/02/23 03:18:38;;;;;;;;;;;;;;;19.04;43.74;102222.16;7283675;19;152466;-49
2022/02/23 03:21:06;;;;;;;;;;;;;;;19.02;43.69;102218.78;7282258;19;153717;-49
2022/02/23 03:23:34;;;;;;;;;;;;;;;19.00;43.56;102215.38;7284894;19;151564;-49
2022/02/23 03:26:01;;;;;;;;;;;;;;;18.97;43.95;102216.78;7280603;19;151899;-49
2022/02/23 03:28:29;;;;;;;;;;;;;;;18.96;43.58;102217.03;7290496;19;155622;-49
2022/02/23 03:30:56;;;;;;;;;;;;;;;18.96;43.88;102217.88;7284906;19;153304;-49
2022/02/23 03:33:22;;;;;;;;;;;;;;;18.94;43.72;102224.88;7280753;19;152442;-50
2022/02/23 03:35:50;;;;;;;;;;;;;;;18.94;43.88;102222.09;7281456;19;151934;-49
2022/02/23 03:38:16;;;;;;;;;;;;;;;18.90;44.07;102223.69;7283241;19;152750;-50
2022/02/23 03:40:43;;;;;;;;;;;;;;;18.90;43.59;102224.53;7281877;19;153818;-49
2022/02/23 03:43:10;;;;;;;;;;;;;;;18.87;43.87;102218.63;7281614;19;152375;-49
2022/02/23 03:45:38;;;;;;;;;;;;;;;18.86;44.07;102225.34;7280366;19;153156;-49
2022/02/23 03:48:05;;;;;;;;;;;;;;;18.84;44.10;102217.22;7283566;19;154358;-49
2022/02/23 03:50:32;;;;;;;;;;;;;;;18.83;44.12;102223.09;7291975;19;151953;-49
2022/02/23 03:52:58;;;;;;;;;;;;;;;18.81;43.83;102219.69;7282487;19;153314;-49
2022/02/23 03:55:25;;;;;;;;;;;;;;;18.80;44.17;102227.28;7283091;19;152021;-49
2022/02/23 03:57:52;;;;;;;;;;;;;;;18.76;44.25;102220.50;7284568;19;153468;-51
2022/02/23 04:00:19;;;;;;;;;;;;;;;18.77;44.21;102215.75;7280968;19;154967;-49
2022/02/23 04:02:46;;;;;;;;;;;;;;;18.74;44.15;102214.34;7283021;19;151886;-51
2022/02/23 04:05:13;;;;;;;;;;;;;;;18.71;44.33;102226.06;7284020;19;153394;-49
2022/02/23 04:07:42;;;;;;;;;;;;;;;18.71;44.28;102220.47;7282809;19;153369;-49
2022/02/23 04:10:09;;;;;;;;;;;;;;;18.69;44.54;102225.47;7281072;19;152119;-49
2022/02/23 04:12:36;;;;;;;;;;;;;;;18.68;44.44;102212.59;7285604;19;152659;-49
2022/02/23 04:15:03;;;;;;;;;;;;;;;18.65;44.20;102204.72;7284235;19;151898;-48
2022/02/23 04:17:30;;;;;;;;;;;;;;;18.63;44.62;102206.94;7282000;19;152467;-49
2022/02/23 04:19:57;;;;;;;;;;;;;;;18.61;44.69;102207.22;7278202;19;155454;-49
2022/02/23 04:22:24;;;;;;;;;;;;;;;18.59;44.64;102198.22;7283749;19;151922;-49
2022/02/23 04:24:51;;;;;;;;;;;;;;;18.60;44.55;102208.31;7283323;19;152781;-49
2022/02/23 04:27:18;;;;;;;;;;;;;;;18.57;44.76;102208.84;7279188;19;154772;-49
2022/02/23 04:29:47;;;;;;;;;;;;;;;18.57;44.36;102219.19;7282501;19;151812;-51
2022/02/23 04:32:14;;;;;;;;;;;;;;;18.52;44.61;102207.91;7283222;19;154059;-49
2022/02/23 04:34:41;;;;;;;;;;;;;;;18.54;44.60;102200.97;7289445;19;154962;-49
2022/02/23 04:37:08;;;;;;;;;;;;;;;18.51;44.85;102203.44;7289168;19;153337;-49
2022/02/23 04:39:35;;;;;;;;;;;;;;;18.49;44.94;102217.66;7288155;19;153436;-50
2022/02/23 04:42:03;;;;;;;;;;;;;;;18.48;44.81;102206.75;7289030;19;152363;-49
2022/02/23 04:44:30;;;;;;;;;;;;;;;18.50;44.50;102215.72;7287262;19;153719;-49
2022/02/23 04:46:57;;;;;;;;;;;;;;;18.47;45.04;102222.69;7287003;19;154118;-49
2022/02/23 04:49:23;;;;;;;;;;;;;;;18.47;44.66;102224.66;7288413;19;152116;-50
2022/02/23 04:51:50;;;;;;;;;;;;;;;18.44;45.25;102230.78;7288142;19;152886;-49
2022/02/23 04:54:17;;;;;;;;;;;;;;;18.42;44.78;102230.19;7296173;19;153965;-49
2022/02/23 04:56:44;;;;;;;;;;;;;;;18.42;44.83;102200.25;7286775;19;152616;-49
2022/02/23 04:59:11;;;;;;;;;;;;;;;18.46;45.21;102220.16;7286079;19;155777;-50
2022/02/23 05:01:38;;;;;;;;;;;;;;;18.49;44.83;102222.41;7289834;19;152206;-50
2022/02/23 05:04:05;;;;;;;;;;;;;;;18.50;45.09;102216.56;7288537;19;153364;-49
2022/02/23 05:06:31;;;;;;;;;;;;;;;18.54;45.29;102211.31;7286469;19;154322;-50
2022/02/23 05:08:58;;;;;;;;;;;;;;;18.57;45.68;102222.84;7288752;19;152265;-49
2022/02/23 05:11:25;;;;;;;;;;;;;;;18.61;45.57;102232.41;7287746;19;151527;-51
2022/02/23 05:13:52;;;;;;;;;;;;;;;18.67;45.66;102230.47;7286892;19;152427;-50
2022/02/23 05:16:21;;;;;;;;;;;;;;;18.73;45.81;102222.97;7295282;19;151888;-49
2022/02/23 05:18:48;;;;;;;;;;;;;;;18.80;46.00;102220.81;7287284;19;154065;-49
2022/02/23 05:21:14;;;;;;;;;;;;;;;18.86;45.99;102222.53;7286734;19;152112;-50
2022/02/23 05:23:41;;;;;;;;;;;;;;;18.91;45.87;102223.44;7288722;19;152159;-49
2022/02/23 05:26:11;;;;;;;;;;;;;;;18.97;45.63;102219.59;7285895;19;154153;-50
2022/02/23 05:28:38;;;;;;;;;;;;;;;19.05;45.58;102209.84;7288281;19;151923;-50
2022/02/23 05:31:04;;;;;;;;;;;;;;;19.10;45.63;102207.06;7288787;19;153767;-49
2022/02/23 05:33:31;;;;;;;;;;;;;;;19.17;45.41;102209.66;7286856;19;153359;-51
2022/02/23 05:35:59;;;;;;;;;;;;;;;19.23;45.13;102211.38;7285818;19;151908;-49
2022/02/23 05:38:26;;;;;;;;;;;;;;;19.28;45.36;102217.00;7294466;19;153300;-50
2022/02/23 05:40:53;;;;;;;;;;;;;;;19.34;44.82;102202.78;7287360;19;151824;-49
2022/02/23 05:43:20;;;;;;;;;;;;;;;19.40;44.82;102206.44;7287753;19;153293;-49
2022/02/23 05:45:46;;;;;;;;;;;;;;;19.45;45.00;102206.50;7286673;19;154225;-49
2022/02/23 05:48:13;;;;;;;;;;;;;;;19.51;44.58;102189.47;7284604;19;151863;-49
2022/02/23 05:50:40;;;;;;;;;;;;;;;19.57;44.76;102195.97;7287440;19;154456;-51
2022/02/23 05:53:10;;;;;;;;;;;;;;;19.64;44.70;102199.34;7286367;19;154322;-49
2022/02/23 05:55:37;;;;;;;;;;;;;;;19.69;44.38;102193.78;7287825;19;151944;-49
2022/02/23 05:58:04;;;;;;;;;;;;;;;19.75;44.53;102195.50;7287940;19;152920;-49
2022/02/23 06:00:31;;;;;;;;;;;;;;;19.81;44.45;102190.72;7293584;19;153800;-49
2022/02/23 06:02:58;;;;;;;;;;;;;;;19.86;44.32;102200.03;7286251;19;151810;-49
2022/02/23 06:05:25;;;;;;;;;;;;;;;19.91;44.06;102202.84;7284387;19;153941;-49
2022/02/23 06:07:52;;;;;;;;;;;;;;;19.97;44.28;102198.13;7285183;19;152006;-50
2022/02/23 06:10:18;;;;;;;;;;;;;;;20.03;44.48;102204.59;7286356;19;152418;-50
2022/02/23 06:12:45;;;;;;;;;;;;;;;20.07;44.85;102203.78;7285184;19;155703;-49
2022/02/23 06:15:12;;;;;;;;;;;;;;;20.12;44.72;102203.78;7287481;19;151545;-49
2022/02/23 06:17:39;;;;;;;;;;;;;;;20.18;44.60;102202.66;7287426;19;153159;-49
2022/02/23 06:20:06;;;;;;;;;;;;;;;20.22;44.05;102198.19;7284981;19;154229;-50
2022/02/23 06:22:33;;;;;;;;;;;;;;;20.28;44.23;102199.91;7294457;19;151827;-50
2022/02/23 06:25:00;;;;;;;;;;;;;;;20.32;44.01;102189.84;7284846;19;153516;-50
2022/02/23 06:27:27;;;;;;;;;;;;;;;20.36;44.33;102188.16;7285202;19;152469;-49
2022/02/23 06:29:54;;;;;;;;;;;;;;;20.40;43.62;102194.06;7285696;19;153551;-49
2022/02/23 06:32:21;;;;;;;;;;;;;;;20.45;43.76;102196.03;7285977;19;153422;-50
2022/02/23 06:34:48;;;;;;;;;;;;;;;20.49;43.34;102192.38;7286157;19;152307;-50
2022/02/23 06:37:14;;;;;;;;;;;;;;;20.53;43.35;102195.50;7286374;19;153405;-50
2022/02/23 06:39:43;;;;;;;;;;;;;;;20.57;43.52;102196.63;7284858;19;153872;-49
2022/02/23 06:42:10;;;;;;;;;;;;;;;20.60;43.17;102188.50;7284755;19;151735;-50
2022/02/23 06:44:37;;;;;;;;;;;;;;;20.64;43.54;102189.63;7290218;19;152641;-49
2022/02/23 06:47:04;;;;;;;;;;;;;;;20.69;43.36;102208.44;7286180;19;151979;-50
2022/02/23 06:49:30;;;;;;;;;;;;;;;20.72;42.88;102211.53;7286439;19;152859;-49
2022/02/23 06:52:00;;;;;;;;;;;;;;;20.76;43.17;102195.78;7285058;19;152736;-49
2022/02/23 06:54:29;;;;;;;;;;;;;;;20.79;43.04;102195.25;7286432;19;151643;-50
2022/02/23 06:56:56;;;;;;;;;;;;;;;20.84;43.16;102192.47;7284072;19;152054;-50
2022/02/23 06:59:23;;;;;;;;;;;;;;;20.86;43.01;102198.63;7282104;19;153395;-49
2022/02/23 07:01:50;;;;;;;;;;;;;;;20.90;43.05;102195.25;7285563;19;152245;-50
2022/02/23 07:04:17;;;;;;;;;;;;;;;20.94;42.77;102190.78;7292388;19;153340;-50
2022/02/23 07:06:44;;;;;;;;;;;;;;;20.97;42.50;102188.25;7284849;19;152470;-50
2022/02/23 07:09:11;;;;;;;;;;;;;;;21.00;42.63;102189.63;7286261;19;153251;-51
2022/02/23 07:11:38;;;;;;;;;;;;;;;21.04;42.45;102193.56;7282118;19;154913;-50
2022/02/23 07:14:05;;;;;;;;;;;;;;;21.06;42.29;102194.13;7283485;19;151910;-50
2022/02/23 07:16:33;;;;;;;;;;;;;;;21.09;42.19;102188.78;7285785;19;153264;-50
2022/02/23 07:19:00;;;;;;;;;;;;;;;21.14;42.23;102182.34;7284658;19;153453;-50
2022/02/23 07:21:27;;;;;;;;;;;;;;;21.16;42.39;102174.50;7283156;19;152158;-50
2022/02/23 07:23:55;;;;;;;;;;;;;;;21.19;42.41;102187.97;7283142;19;153272;-50
2022/02/23 07:26:22;;;;;;;;;;;;;;;21.21;42.12;102185.72;7288857;19;154954;-51
2022/02/23 07:28:50;;;;;;;;;;;;;;;21.20;42.12;102178.41;7285122;19;152612;-51
2022/02/23 07:31:17;;;;;;;;;;;;;;;21.20;41.31;102182.06;7283413;19;153592;-50
2022/02/23 07:33:45;;;;;;;;;;;;;;;21.08;38.82;102173.03;7283505;19;151718;-50
2022/02/23 07:36:14;;;;;;;;;;;;;;;20.97;39.47;102176.16;7280190;19;153961;-51
2022/02/23 07:38:47;;;;;;;;;;;;;;;20.95;39.09;102184.00;7275661;19;152548;-51
2022/02/23 07:41:21;;;;;;;;;;;;;;;20.90;38.73;102172.75;7283524;19;152102;-51
2022/02/23 07:44:08;;;;;;;;;;;;;;;20.86;38.82;102184.56;7283518;19;151808;-51
2022/02/23 07:46:35;;;;;;;;;;;;;;;20.81;38.92;102176.13;7282780;19;153777;-52
2022/02/23 07:49:02;;;;;;;;;;;;;;;20.79;38.78;102178.41;7290846;19;152539;-51
2022/02/23 07:51:29;;;;;;;;;;;;;;;20.76;38.84;102180.91;7283316;19;153964;-51
2022/02/23 07:53:58;;;;;;;;;;;;;;;20.71;38.59;102170.53;7284901;19;151699;-51
2022/02/23 07:56:26;;;;;;;;;;;;;;;20.69;39.05;102181.19;7283652;19;153379;-51
2022/02/23 07:58:53;;;;;;;;;;;;;;;20.66;39.09;102180.94;7282943;19;153571;-51
2022/02/23 08:01:30;;;;;;;;;;;;;;;20.66;39.06;102178.13;7281483;19;151716;-50
2022/02/23 08:03:57;;;;;;;;;;;;;;;20.58;38.85;102181.47;7284164;19;152778;-51
2022/02/23 08:06:26;;;;;;;;;;;;;;;20.63;39.08;102171.06;7281320;19;155033;-51
2022/02/23 08:08:54;;;;;;;;;;;;;;;20.65;39.04;102168.84;7283794;19;151974;-50
2022/02/23 08:11:21;;;;;;;;;;;;;;;20.60;38.82;102176.41;7293008;19;153408;-53
2022/02/23 08:13:49;;;;;;;;;;;;;;;20.62;38.79;102174.19;7287501;19;152330;-51
2022/02/23 08:21:31;;;;;;;;;;;;;;;20.49;38.95;102167.13;7282059;19;152300;-51
2022/02/23 08:23:58;;;;;;;;;;;;;;;20.47;38.92;102158.16;7286684;19;154383;-50
2022/02/23 08:26:27;;;;;;;;;;;;;;;20.38;38.84;102160.66;7286456;19;152394;-51
2022/02/23 08:28:54;;;;;;;;;;;;;;;20.30;38.78;102149.16;7289106;19;151800;-51
2022/02/23 08:31:23;;;;;;;;;;;;;;;20.29;38.92;102153.03;7288223;19;153800;-51
2022/02/23 08:34:00;;;;;;;;;;;;;;;20.25;38.51;102151.91;7294885;19;153698;-51
2022/02/23 08:36:26;;;;;;;;;;;;;;;20.22;38.90;102153.28;7286065;19;155209;-51
2022/02/23 08:38:53;;;;;;;;;;;;;;;20.15;38.83;102158.34;7287546;19;153305;-51
2022/02/23 08:41:24;;;;;;;;;;;;;;;20.21;39.11;102148.81;7284281;19;151934;-51
2022/02/23 08:44:11;;;;;;;;;;;;;;;20.14;38.87;102148.22;7287323;19;153398;-51
2022/02/23 08:46:40;;;;;;;;;;;;;;;20.11;39.25;102145.13;7286429;19;154663;-51
2022/02/23 08:49:07;;;;;;;;;;;;;;;20.12;39.51;102146.81;7287608;19;151745;-51
2022/02/23 08:51:35;;;;;;;;;;;;;;;20.13;39.21;102149.34;7287085;19;153441;-51
2022/02/23 08:54:04;;;;;;;;;;;;;;;20.14;39.61;102133.34;7284799;19;153918;-51
2022/02/23 08:56:32;;;;;;;;;;;;;;;20.18;39.25;102145.69;7292831;19;152969;-51
2022/02/23 08:58:59;;;;;;;;;;;;;;;20.21;39.37;102139.56;7284127;19;154023;-51
2022/02/23 09:01:26;;;;;;;;;;;;;;;20.24;39.27;102139.84;7286019;19;151572;-51
2022/02/23 09:03:53;;;;;;;;;;;;;;;20.26;39.29;102142.38;7286006;19;153491;-51
2022/02/23 09:06:20;;;;;;;;;;;;;;;20.25;38.96;102151.91;7285237;19;152676;-52
2022/02/23 09:08:49;;;;;;;;;;;;;;;20.27;38.90;102144.03;7284474;19;152456;-51
2022/02/23 09:11:17;;;;;;;;;;;;;;;20.29;38.64;102142.66;7282264;19;153851;-51
2022/02/23 09:13:45;;;;;;;;;;;;;;;20.30;38.78;102149.16;7282329;19;154082;-51
2022/02/23 09:16:12;;;;;;;;;;;;;;;20.30;38.71;102140.72;7293468;19;152325;-51
2022/02/23 09:18:39;;;;;;;;;;;;;;;20.32;38.70;102146.88;7285132;19;153992;-51
2022/02/23 09:21:07;;;;;;;;;;;;;;;20.31;38.68;102145.19;7278814;19;152151;-51
2022/02/23 09:23:35;;;;;;;;;;;;;;;20.29;39.03;102147.44;7283797;19;153618;-51
2022/02/23 09:26:05;;;;;;;;;;;;;;;20.27;38.73;102142.06;7283298;19;153239;-51
2022/02/23 09:28:32;;;;;;;;;;;;;;;20.24;38.69;102144.59;7281775;19;152284;-51
2022/02/23 09:31:00;;;;;;;;;;;;;;;20.25;39.20;102146.28;7283154;19;152677;-50
2022/02/23 09:33:35;;;;;;;;;;;;;;;20.22;39.12;102133.66;7284866;19;153198;-51
2022/02/23 09:36:03;;;;;;;;;;;;;;;20.23;39.14;102131.69;7284707;19;152208;-51
2022/02/23 09:38:30;;;;;;;;;;;;;;;20.22;38.92;102127.19;7291007;19;153214;-51
2022/02/23 09:40:58;;;;;;;;;;;;;;;20.21;38.79;102131.13;7285362;19;151953;-52
2022/02/23 09:43:25;;;;;;;;;;;;;;;20.20;39.12;102126.63;7286182;19;153699;-51
2022/02/23 09:45:53;;;;;;;;;;;;;;;20.18;38.91;102120.44;7283584;19;154209;-50
2022/02/23 09:48:21;;;;;;;;;;;;;;;20.19;39.06;102119.34;7284171;19;151867;-50
2022/02/23 09:50:50;;;;;;;;;;;;;;;20.19;39.06;102116.53;7284814;19;153684;-50
2022/02/23 09:53:18;;;;;;;;;;;;;;;20.17;38.89;102107.56;7284166;19;153045;-53
2022/02/23 09:55:47;;;;;;;;;;;;;;;20.16;39.01;102117.94;7284154;19;151732;-51
2022/02/23 09:58:15;;;;;;;;;;;;;;;20.14;39.13;102119.31;7284222;19;152017;-51
2022/02/23 10:00:42;;;;;;;;;;;;;;;20.11;38.77;102103.03;7291926;19;153626;-51
2022/02/23 10:03:11;;;;;;;;;;;;;;;20.09;38.77;102110.88;7281079;19;153742;-51
2022/02/23 10:05:41;;;;;;;;;;;;;;;20.08;38.77;102098.81;7284888;19;153500;-51
2022/02/23 10:08:14;;;;;;;;;;;;;;;20.09;39.03;102106.13;7282732;19;152016;-52
2022/02/23 10:11:02;;;;;;;;;;;;;;;20.05;38.79;102106.94;7281961;19;153102;-51
2022/02/23 10:13:29;;;;;;;;;;;;;;;20.03;38.55;102106.41;7281819;19;152126;-51
2022/02/23 10:15:58;;;;;;;;;;;;;;;20.03;38.62;102104.44;7282674;19;151764;-51
2022/02/23 10:18:46;;;;;;;;;;;;;;;20.03;38.59;102092.38;7283639;19;155179;-51
2022/02/23 10:21:17;;;;;;;;;;;;;;;20.06;38.94;102094.63;7277978;19;153390;-51
2022/02/23 10:23:44;;;;;;;;;;;;;;;20.11;38.60;102083.41;7289089;19;151929;-51
2022/02/23 10:26:12;;;;;;;;;;;;;;;20.16;38.66;102083.41;7283097;19;153579;-51
2022/02/23 10:28:40;;;;;;;;;;;;;;;20.21;38.59;102077.81;7281582;19;151633;-51
2022/02/23 10:31:12;;;;;;;;;;;;;;;20.24;38.45;102077.25;7283901;19;152895;-51
2022/02/23 10:33:41;;;;;;;;;;;;;;;20.28;38.80;102073.59;7280109;19;153355;-51
2022/02/23 10:36:22;;;;;;;;;;;;;;;20.31;38.64;102072.22;7274817;19;151771;-50
2022/02/23 10:38:57;;;;;;;;;;;;;;;20.35;38.53;102067.75;7280578;19;153535;-51
2022/02/23 10:41:26;;;;;;;;;;;;;;;20.38;38.35;102075.63;7282570;19;153313;-50
2022/02/23 10:43:53;;;;;;;;;;;;;;;20.38;38.29;102075.63;7284188;19;152657;-51
2022/02/23 10:46:23;;;;;;;;;;;;;;;20.37;38.00;102065.50;7288770;19;152922;-51
2022/02/23 10:48:55;;;;;;;;;;;;;;;20.38;38.09;102067.19;7282464;19;152728;-51
2022/02/23 10:51:25;;;;;;;;;;;;;;;20.36;38.45;102061.00;7282992;19;153825;-51
2022/02/23 10:53:52;;;;;;;;;;;;;;;20.39;38.04;102066.91;7281288;19;153564;-51
2022/02/23 10:56:28;;;;;;;;;;;;;;;20.38;38.03;102050.34;7282066;19;152396;-50
2022/02/23 10:59:03;;;;;;;;;;;;;;;20.36;38.23;102046.97;7283866;19;153269;-51
2022/02/23 11:01:30;;;;;;;;;;;;;;;20.38;38.16;102051.19;7282074;19;152884;-51
2022/02/23 11:03:57;;;;;;;;;;;;;;;20.38;38.21;102051.19;7283370;19;152244;-51
2022/02/23 11:06:25;;;;;;;;;;;;;;;20.34;37.90;102041.66;7282896;19;153824;-51
2022/02/23 11:08:52;;;;;;;;;;;;;;;20.34;38.03;102032.38;7287983;19;151645;-51
2022/02/23 11:11:20;;;;;;;;;;;;;;;20.34;37.64;102032.38;7281157;19;153354;-51
2022/02/23 11:13:48;;;;;;;;;;;;;;;20.35;37.70;102015.25;7282001;19;153964;-50
2022/02/23 11:16:17;;;;;;;;;;;;;;;20.32;37.74;102006.56;7281690;19;152143;-51
2022/02/23 11:18:52;;;;;;;;;;;;;;;20.27;37.94;102003.72;7283553;19;152063;-51
2022/02/23 11:21:22;;;;;;;;;;;;;;;20.24;37.68;102005.13;7279653;19;153267;-50
2022/02/23 11:23:52;;;;;;;;;;;;;;;20.22;37.96;101998.94;7278242;19;152337;-51
2022/02/23 11:26:20;;;;;;;;;;;;;;;20.22;38.04;101996.13;7282495;19;153496;-51
2022/02/23 11:29:05;;;;;;;;;;;;;;;20.20;38.13;101987.16;7287300;19;154263;-51
2022/02/23 11:31:37;;;;;;;;;;;;;;;20.21;38.08;101971.19;7282091;19;153487;-51
2022/02/23 11:34:12;;;;;;;;;;;;;;;20.16;38.17;101972.03;7280373;19;153570;-51
2022/02/23 11:36:44;;;;;;;;;;;;;;;20.14;38.00;101974.25;7281231;19;151773;-51
2022/02/23 11:39:16;;;;;;;;;;;;;;;20.15;38.35;101955.47;7283092;19;152725;-51
2022/02/23 11:41:54;;;;;;;;;;;;;;;20.11;38.31;101951.53;7281225;19;153432;-51
2022/02/23 11:44:48;;;;;;;;;;;;;;;20.12;38.35;101950.41;7282415;19;152877;-51
2022/02/23 11:47:44;;;;;;;;;;;;;;;20.05;38.38;101950.69;7282129;19;155064;-51
2022/02/23 11:50:24;;;;;;;;;;;;;;;20.03;37.76;101932.47;7280108;19;152454;-51
2022/02/23 11:52:52;;;;;;;;;;;;;;;20.01;37.99;101927.13;7288743;19;152493;-52
2022/02/23 11:55:20;;;;;;;;;;;;;;;19.99;37.79;101929.34;7281596;19;154375;-51
2022/02/23 11:57:54;;;;;;;;;;;;;;;19.99;38.13;101899.34;7282931;19;151927;-51
2022/02/23 12:00:34;;;;;;;;;;;;;;;20.00;38.37;101905.81;7281861;19;153644;-51
2022/02/23 12:03:10;;;;;;;;;;;;;;;20.02;38.11;101902.72;7282042;19;153095;-52
2022/02/23 12:05:41;;;;;;;;;;;;;;;19.97;38.18;101896.00;7278952;19;152348;-51
2022/02/23 12:08:27;;;;;;;;;;;;;;;19.93;37.64;101892.09;7282605;19;153802;-51
2022/02/23 12:10:54;;;;;;;;;;;;;;;19.91;37.71;101885.91;7278466;19;154008;-52
2022/02/23 12:13:32;;;;;;;;;;;;;;;19.89;37.96;101887.31;7283188;19;151776;-51
2022/02/23 12:16:21;;;;;;;;;;;;;;;19.90;38.06;101900.19;7290044;19;153825;-51
2022/02/23 12:18:58;;;;;;;;;;;;;;;19.89;37.59;101895.72;7280448;19;151608;-52
2022/02/23 12:21:42;;;;;;;;;;;;;;;19.88;37.80;101878.06;7282902;19;152833;-51
2022/02/23 12:24:16;;;;;;;;;;;;;;;19.83;37.71;101880.88;7282031;19;153318;-51
2022/02/23 12:26:44;;;;;;;;;;;;;;;19.85;37.46;101877.78;7281023;19;151836;-50
2022/02/23 12:29:12;;;;;;;;;;;;;;;19.84;37.48;101870.50;7281347;19;153784;-52
2022/02/23 12:31:40;;;;;;;;;;;;;;;19.83;37.45;101866.84;7280980;19;153821;-51
2022/02/23 12:34:10;;;;;;;;;;;;;;;19.85;37.29;101867.38;7282335;19;151587;-51
2022/02/23 12:37:03;;;;;;;;;;;;;;;19.84;37.01;101848.91;7282816;19;155506;-51
2022/02/23 12:39:30;;;;;;;;;;;;;;;19.85;37.05;101847.75;7288774;19;153372;-51
2022/02/23 12:42:01;;;;;;;;;;;;;;;19.94;37.15;101843.25;7281932;19;153558;-50